Time;durP1;ratioP1;P1;durP2;ratioP2;P2;SDS_P1;SDS_P2;PMS_P1;PMS_P2;Temp;Humidity;BMP_temperature;BMP_pressure;BME280_temperature;BME280_humidity;BME280_pressure;Samples;Min_cycle;Max_cycle;Signal;HPM_P1;HPM_P2
2021/01/03 00:01:01;;;;;;;13.43;11.35;;;2.20;61.10;3.80;100031.00;;;;5084281;28;20893;-75
2021/01/03 00:03:29;;;;;;;11.98;10.40;;;2.30;61.00;3.80;100046.00;;;;5093890;28;20442;-75
2021/01/03 00:05:56;;;;;;;12.10;10.80;;;2.30;60.70;3.90;100036.00;;;;5093528;28;20509;-77
2021/01/03 00:08:25;;;;;;;11.75;10.30;;;2.40;60.70;3.90;100044.00;;;;5099956;27;20423;-75
2021/01/03 00:10:52;;;;;;;11.10;9.77;;;2.40;60.20;4.00;100039.00;;;;5109785;27;20413;-75
2021/01/03 00:13:20;;;;;;;10.38;9.27;;;2.40;59.90;3.90;100032.00;;;;5092648;28;20774;-75
2021/01/03 00:15:47;;;;;;;11.95;9.65;;;2.50;59.50;3.90;100040.00;;;;5084539;28;20418;-76
2021/01/03 00:18:15;;;;;;;9.70;8.70;;;2.50;58.90;3.90;100032.00;;;;5105086;28;20532;-75
2021/01/03 00:20:42;;;;;;;9.88;8.88;;;2.50;59.10;3.80;67102.00;;;;5110444;28;20414;-78
2021/01/03 00:23:10;;;;;;;10.13;9.13;;;2.40;59.30;3.80;100047.00;;;;5119234;28;20413;-81
2021/01/03 00:25:38;;;;;;;9.50;8.48;;;2.50;59.10;3.90;100036.00;;;;5113314;28;20532;-78
2021/01/03 00:28:05;;;;;;;9.57;8.57;;;2.50;59.10;3.80;100037.00;;;;5113924;28;20406;-76
2021/01/03 00:30:33;;;;;;;10.55;9.45;;;2.40;59.40;3.70;100034.00;;;;5112615;28;20411;-77
2021/01/03 00:33:00;;;;;;;9.98;8.98;;;2.30;59.90;3.60;100036.00;;;;5124673;28;20405;-76
2021/01/03 00:35:31;;;;;;;9.50;8.30;;;2.20;60.40;3.50;100038.00;;;;5119842;28;20474;-76
2021/01/03 00:38:01;;;;;;;9.57;8.50;;;2.10;60.40;3.40;100032.00;;;;5113048;28;20529;-76
2021/01/03 00:40:29;;;;;;;9.48;8.57;;;2.10;60.60;3.40;100035.00;;;;5115869;28;20481;-78
2021/01/03 00:42:58;;;;;;;10.32;8.73;;;2.00;60.90;3.30;100024.00;;;;5116524;28;20478;-76
2021/01/03 00:45:27;;;;;;;9.30;8.40;;;2.10;61.40;3.30;100024.00;;;;5112917;28;20417;-74
2021/01/03 00:47:54;;;;;;;9.83;8.83;;;2.00;61.80;3.30;100013.00;;;;5094209;28;20422;-75
2021/01/03 00:50:22;;;;;;;9.10;8.10;;;1.90;61.60;3.30;66976.00;;;;5094910;28;20409;-74
2021/01/03 00:52:50;;;;;;;9.93;8.40;;;1.90;61.30;3.30;100010.00;;;;5096646;28;20409;-73
2021/01/03 00:55:18;;;;;;;9.18;8.00;;;2.00;61.30;3.40;100032.00;;;;5104706;28;20394;-76
2021/01/03 00:57:45;;;;;;;8.88;7.97;;;2.00;61.20;3.50;100026.00;;;;5131700;28;20416;-77
2021/01/03 01:00:18;;;;;;;9.73;8.10;;;2.10;60.90;3.60;100030.00;;;;5110481;28;20414;-74
2021/01/03 01:02:46;;;;;;;10.00;8.60;;;2.10;60.40;217.30;158215.00;;;;5113057;28;20458;-76
2021/01/03 01:05:14;;;;;;;8.95;8.15;;;2.20;60.20;3.80;100014.00;;;;5142037;28;20399;-80
2021/01/03 01:07:42;;;;;;;9.90;8.13;;;2.10;60.00;3.80;100012.00;;;;5126844;28;20409;-76
2021/01/03 01:10:19;;;;;;;10.18;9.07;;;2.30;59.60;3.90;100015.00;;;;5109270;28;20433;-75
2021/01/03 01:12:47;;;;;;;9.32;8.10;;;2.30;59.40;3.90;100007.00;;;;5125193;28;20433;-76
2021/01/03 01:15:18;;;;;;;9.10;8.20;;;2.40;59.20;3.90;100020.00;;;;5112785;28;20480;-76
2021/01/03 01:17:47;;;;;;;8.70;7.80;;;2.40;59.00;3.90;100022.00;;;;5118125;28;20525;-75
2021/01/03 01:20:17;;;;;;;8.90;8.00;;;2.40;59.00;4.00;100015.00;;;;5110235;28;20432;-77
2021/01/03 01:22:45;;;;;;;8.95;8.05;;;2.40;59.00;4.00;100003.00;;;;5120120;28;20402;-76
2021/01/03 01:25:15;;;;;;;8.70;7.80;;;2.50;59.10;4.00;100014.00;;;;5108011;28;20414;-78
2021/01/03 01:27:42;;;;;;;9.10;8.20;;;2.50;59.00;4.10;100007.00;;;;5107571;28;20430;-77
2021/01/03 01:30:16;;;;;;;9.48;8.48;;;2.50;58.80;4.10;100004.00;;;;5090101;28;20815;-77
2021/01/03 01:32:44;;;;;;;9.55;8.35;;;2.60;58.60;4.10;100013.00;;;;5088930;28;20443;-78
2021/01/03 01:35:16;;;;;;;8.20;7.40;;;2.60;58.50;4.00;100002.00;;;;5090143;28;20475;-77
2021/01/03 01:37:44;;;;;;;10.07;8.77;;;2.60;58.60;217.30;158421.00;;;;5103574;28;20428;-77
2021/01/03 01:40:15;;;;;;;9.32;8.32;;;2.60;59.00;4.10;100010.00;;;;5087778;28;20455;-77
2021/01/03 01:42:44;;;;;;;9.40;8.50;;;2.60;58.50;4.10;100007.00;;;;5095586;28;20539;-76
2021/01/03 01:45:14;;;;;;;9.43;8.52;;;2.60;58.00;4.20;100012.00;;;;5106945;28;20798;-75
2021/01/03 01:47:47;;;;;;;9.55;8.65;;;2.70;57.90;4.20;100020.00;;;;5093543;28;20487;-75
2021/01/03 01:50:24;;;;;;;10.00;9.00;;;2.70;58.50;4.20;100020.00;;;;5098214;28;20553;-75
2021/01/03 01:52:55;;;;;;;10.13;9.13;;;2.80;57.10;4.30;99993.00;;;;5104032;28;20445;-77
2021/01/03 01:55:31;;;;;;;10.60;9.50;;;2.80;57.30;4.30;100001.00;;;;5105068;28;20455;-77
2021/01/03 01:58:09;;;;;;;10.77;9.68;;;2.80;57.70;4.40;99996.00;;;;5094699;28;20495;-76
2021/01/03 02:00:39;;;;;;;11.20;10.07;;;2.90;56.90;4.40;100011.00;;;;5126005;28;20530;-74
2021/01/03 02:03:17;;;;;;;10.68;9.57;;;2.90;56.90;4.40;100000.00;;;;5111260;28;20409;-75
2021/01/03 02:05:52;;;;;;;10.80;9.80;;;2.90;56.00;4.50;100004.00;;;;5103857;28;20532;-75
2021/01/03 02:08:27;;;;;;;10.65;9.55;;;3.00;56.50;4.60;100003.00;;;;5114224;28;20464;-75
2021/01/03 02:10:55;;;;;;;10.70;9.60;;;3.00;56.70;4.60;100002.00;;;;5084502;28;20414;-77
2021/01/03 02:13:27;;;;;;;11.00;9.90;;;3.00;56.40;4.60;100002.00;;;;5086951;28;20414;-77
2021/01/03 02:15:58;;;;;;;11.07;9.98;;;3.00;56.20;4.50;100004.00;;;;5096477;28;20446;-77
2021/01/03 02:18:28;;;;;;;10.90;9.90;;;3.00;56.10;4.60;100008.00;;;;5096244;28;20448;-77
2021/01/03 02:21:07;;;;;;;10.70;9.70;;;3.00;56.40;4.60;100006.00;;;;5099075;28;20425;-74
2021/01/03 02:23:43;;;;;;;11.37;10.27;;;3.00;56.50;4.50;99993.00;;;;5092579;28;20582;-75
2021/01/03 02:26:14;;;;;;;11.02;9.93;;;3.00;56.10;4.50;99990.00;;;;5115930;28;20457;-76
2021/01/03 02:28:44;;;;;;;12.10;10.95;;;3.00;56.40;4.50;99987.00;;;;5099045;28;20417;-77
2021/01/03 02:31:17;;;;;;;11.82;10.63;;;2.90;56.20;4.50;99993.00;;;;5099819;28;20440;-77
2021/01/03 02:33:49;;;;;;;11.95;10.75;;;3.00;57.20;4.50;67245.00;;;;5099967;28;20488;-77
2021/01/03 02:36:22;;;;;;;13.45;12.05;;;3.00;56.40;217.30;158556.00;;;;5100288;28;20418;-77
2021/01/03 02:39:04;;;;;;;12.60;11.40;;;3.00;56.70;4.50;99991.00;;;;5094702;28;20446;-77
2021/01/03 02:41:33;;;;;;;13.05;11.65;;;3.00;57.00;4.40;99975.00;;;;5089606;28;20461;-77
2021/01/03 02:44:01;;;;;;;12.60;11.40;;;2.90;56.70;4.40;99990.00;;;;5095795;28;20443;-76
2021/01/03 02:46:28;;;;;;;12.88;11.57;;;3.00;56.90;4.40;99995.00;;;;5102778;28;20440;-76
2021/01/03 02:48:56;;;;;;;12.98;11.68;;;3.00;56.80;4.40;99981.00;;;;5090789;28;20444;-76
2021/01/03 02:51:28;;;;;;;13.15;11.82;;;3.00;57.20;4.50;99985.00;;;;5091741;28;20413;-77
2021/01/03 02:53:56;;;;;;;13.90;12.60;;;3.00;56.70;4.60;100006.00;;;;5092580;28;20617;-75
2021/01/03 02:56:23;;;;;;;13.40;12.02;;;3.00;56.40;4.60;99987.00;;;;5092875;28;20796;-77
2021/01/03 02:58:51;;;;;;;13.27;11.98;;;3.00;56.00;4.60;99892.00;;;;5091171;28;20453;-76
2021/01/03 03:01:19;;;;;;;12.52;11.32;;;3.10;56.00;4.60;99977.00;;;;5125345;27;20422;-77
2021/01/03 03:03:47;;;;;;;13.57;12.27;;;3.10;56.10;4.70;99984.00;;;;5102519;28;20456;-75
2021/01/03 03:06:15;;;;;;;14.00;12.70;;;3.20;55.60;4.80;99989.00;;;;5092978;28;20528;-76
2021/01/03 03:08:42;;;;;;;14.40;13.00;;;3.20;56.40;217.30;158742.00;;;;5091386;28;20457;-77
2021/01/03 03:11:10;;;;;;;14.15;12.65;;;3.20;55.40;4.80;99986.00;;;;5092406;28;20913;-77
2021/01/03 03:13:37;;;;;;;14.30;12.90;;;3.20;55.00;4.80;99981.00;;;;5104994;28;20414;-76
2021/01/03 03:16:07;;;;;;;15.50;13.30;;;3.20;54.90;4.90;99988.00;;;;5092789;28;20920;-74
2021/01/03 03:18:34;;;;;;;15.00;13.40;;;3.20;54.90;4.90;99965.00;;;;5081756;28;20445;-75
2021/01/03 03:21:01;;;;;;;14.27;12.75;;;3.20;54.90;4.90;99982.00;;;;5092562;28;20444;-75
2021/01/03 03:23:29;;;;;;;14.52;12.95;;;3.20;54.90;4.90;99964.00;;;;5092217;28;20634;-76
2021/01/03 03:25:56;;;;;;;15.23;13.63;;;3.20;54.90;4.90;99980.00;;;;5081635;28;20420;-78
2021/01/03 03:28:23;;;;;;;14.97;13.37;;;3.20;55.10;4.90;99987.00;;;;5080368;28;20910;-77
2021/01/03 03:30:51;;;;;;;15.30;13.70;;;3.20;55.30;4.90;99978.00;;;;5086356;28;20485;-77
2021/01/03 03:33:19;;;;;;;15.40;13.82;;;3.30;56.40;4.90;99971.00;;;;5076884;28;20431;-75
2021/01/03 03:35:47;;;;;;;15.75;14.20;;;3.20;55.80;4.90;99966.00;;;;5081155;28;20485;-77
2021/01/03 03:38:14;;;;;;;16.13;14.60;;;3.20;56.30;217.30;158774.00;;;;5091130;28;20422;-76
2021/01/03 03:40:41;;;;;;;16.83;15.13;;;3.20;56.60;4.90;99979.00;;;;5090896;28;21154;-76
2021/01/03 03:43:09;;;;;;;16.77;15.07;;;3.30;57.10;4.80;99980.00;;;;5091246;28;20858;-76
2021/01/03 03:45:37;;;;;;;17.55;15.75;;;3.20;56.90;4.80;99972.00;;;;5097134;28;20503;-76
2021/01/03 03:48:05;;;;;;;17.60;15.73;;;3.20;57.10;4.80;99978.00;;;;5089592;28;20498;-76
2021/01/03 03:50:33;;;;;;;16.85;15.07;;;3.20;57.30;4.80;99971.00;;;;5098098;28;20429;-75
2021/01/03 03:53:00;;;;;;;16.80;15.20;;;3.20;58.00;4.80;99971.00;;;;5087342;28;20423;-76
2021/01/03 03:55:28;;;;;;;17.58;15.77;;;3.30;58.10;4.80;99974.00;;;;5080739;28;20402;-77
2021/01/03 03:57:56;;;;;;;17.10;15.40;;;3.20;57.70;4.70;99979.00;;;;5081859;28;20531;-76
2021/01/03 04:00:25;;;;;;;17.38;15.68;;;3.20;58.10;4.70;99959.00;;;;5079489;28;20423;-75
2021/01/03 04:02:53;;;;;;;16.75;15.15;;;3.20;58.30;4.80;99957.00;;;;5081624;28;20547;-77
2021/01/03 04:05:24;;;;;;;17.50;15.80;;;3.20;58.70;4.80;99963.00;;;;5105399;28;20430;-76
2021/01/03 04:07:53;;;;;;;17.38;15.68;;;3.20;58.90;4.80;99968.00;;;;5088218;28;20456;-77
2021/01/03 04:10:21;;;;;;;17.48;15.77;;;3.20;58.70;4.70;99964.00;;;;5095425;28;20422;-77
2021/01/03 04:12:50;;;;;;;16.42;14.82;;;3.30;58.20;4.70;99980.00;;;;5104686;28;20445;-77
2021/01/03 04:15:19;;;;;;;17.13;15.43;;;3.20;58.20;4.60;99964.00;;;;5110732;28;20415;-77
2021/01/03 04:17:46;;;;;;;16.45;14.75;;;3.20;58.00;4.60;99970.00;;;;5125585;28;20427;-76
2021/01/03 04:20:18;;;;;;;16.05;14.45;;;3.20;58.60;4.60;99945.00;;;;5094426;28;20508;-76
2021/01/03 04:22:46;;;;;;;15.73;14.23;;;3.20;58.90;4.70;99962.00;;;;5095549;28;20439;-76
2021/01/03 04:25:16;;;;;;;17.00;15.37;;;3.30;58.50;4.70;99963.00;;;;5102363;28;20563;-76
2021/01/03 04:27:45;;;;;;;17.60;15.80;;;3.30;59.40;4.70;99967.00;;;;5087322;28;20422;-76
2021/01/03 04:30:15;;;;;;;16.75;15.10;;;3.20;59.20;4.60;99954.00;;;;5118066;28;20420;-75
2021/01/03 04:32:43;;;;;;;16.88;15.23;;;3.20;59.10;4.70;99939.00;;;;5120831;28;20420;-76
2021/01/03 04:35:11;;;;;;;15.90;14.30;;;3.20;59.40;4.60;99949.00;;;;5117322;28;20440;-75
2021/01/03 04:37:39;;;;;;;15.90;14.30;;;3.20;58.80;4.60;99953.00;;;;5111337;28;20423;-77
2021/01/03 04:40:11;;;;;;;16.00;14.50;;;3.30;59.00;4.50;99956.00;;;;5109223;28;20418;-76
2021/01/03 04:42:39;;;;;;;15.52;14.00;;;3.20;58.50;4.50;99965.00;;;;5126278;27;20430;-76
2021/01/03 04:45:18;;;;;;;16.52;14.73;;;3.20;58.50;4.50;99953.00;;;;5095109;28;20418;-77
2021/01/03 04:47:56;;;;;;;15.40;13.80;;;3.20;59.00;4.50;99965.00;;;;5111740;27;20432;-77
2021/01/03 04:50:56;;;;;;;15.65;14.05;;;3.20;59.30;4.50;99953.00;;;;5091928;28;20462;-77
2021/01/03 04:53:37;;;;;;;15.65;14.02;;;3.20;59.00;4.50;99939.00;;;;5080351;28;20422;-77
2021/01/03 04:56:19;;;;;;;14.40;12.93;;;3.20;59.70;4.50;99953.00;;;;5083102;28;20528;-77
2021/01/03 04:59:03;;;;;;;14.52;13.00;;;3.20;59.10;4.50;99956.00;;;;5099870;28;20437;-77
2021/01/03 05:02:16;;;;;;;15.13;13.63;;;3.20;59.20;4.40;67250.00;;;;5088517;28;20527;-75
2021/01/03 05:05:16;;;;;;;15.43;13.93;;;3.20;59.40;4.50;99941.00;;;;5092158;28;20415;-75
2021/01/03 05:07:50;;;;;;;14.88;13.20;;;3.20;59.50;4.60;99950.00;;;;5123357;28;20453;-75
2021/01/03 05:10:22;;;;;;;14.68;13.27;;;3.20;60.10;4.50;99941.00;;;;5102499;28;20454;-75
2021/01/03 05:13:01;;;;;;;15.30;13.80;;;3.30;58.90;4.50;99940.00;;;;5085812;28;20566;-76
2021/01/03 05:15:33;;;;;;;15.03;13.43;;;3.30;59.30;4.60;99934.00;;;;5080835;28;20519;-77
2021/01/03 05:18:02;;;;;;;13.95;12.55;;;3.20;60.10;4.60;99949.00;;;;5079338;28;20456;-77
2021/01/03 05:20:30;;;;;;;14.60;13.10;;;3.20;59.30;4.60;99964.00;;;;5078192;28;20435;-77
2021/01/03 05:23:14;;;;;;;13.45;12.15;;;3.30;59.60;4.50;99954.00;;;;5075138;28;20412;-76
2021/01/03 05:25:43;;;;;;;14.35;12.85;;;3.30;58.70;4.50;99949.00;;;;5086004;28;20547;-77
2021/01/03 05:28:19;;;;;;;13.70;12.30;;;3.20;59.40;4.50;99952.00;;;;5079659;28;20433;-76
2021/01/03 05:30:48;;;;;;;13.95;12.55;;;3.30;59.10;4.50;99931.00;;;;5099860;28;20418;-77
2021/01/03 05:33:25;;;;;;;14.75;13.25;;;3.30;59.00;4.50;99948.00;;;;5080682;28;20829;-77
2021/01/03 05:35:53;;;;;;;14.65;13.15;;;3.30;59.20;4.50;99943.00;;;;5073645;28;20420;-77
2021/01/03 05:38:37;;;;;;;15.07;13.50;;;3.30;59.00;4.60;67264.00;;;;5085289;28;20419;-77
2021/01/03 05:41:14;;;;;;;14.10;12.68;;;3.30;59.30;4.50;99961.00;;;;5101671;28;20932;-77
2021/01/03 05:43:42;;;;;;;15.20;13.60;;;3.30;58.70;4.50;99945.00;;;;5085612;28;20941;-77
2021/01/03 05:46:20;;;;;;;15.88;14.27;;;3.30;58.90;4.50;99942.00;;;;5082146;28;20414;-77
2021/01/03 05:49:01;;;;;;;16.10;14.50;;;3.30;59.00;4.60;99954.00;;;;5096596;28;20433;-77
2021/01/03 05:51:38;;;;;;;14.90;13.40;;;3.30;59.60;4.60;99941.00;;;;5085698;28;20463;-76
2021/01/03 05:54:09;;;;;;;15.20;13.70;;;3.30;59.50;4.50;99938.00;;;;5099750;27;20448;-76
2021/01/03 05:56:41;;;;;;;15.60;13.82;;;3.30;59.00;4.50;99940.00;;;;5085800;28;20447;-77
2021/01/03 05:59:15;;;;;;;14.68;13.18;;;3.30;59.90;-80.10;215746.00;;;;5095256;28;20421;-76
2021/01/03 06:01:43;;;;;;;15.02;13.43;;;3.30;59.20;4.50;99955.00;;;;5105023;27;20415;-76
2021/01/03 06:04:13;;;;;;;16.35;14.65;;;3.30;60.10;4.60;99943.00;;;;5080340;28;20510;-76
2021/01/03 06:07:08;;;;;;;14.95;13.45;;;3.30;60.30;4.60;99949.00;;;;5085188;28;20419;-77
2021/01/03 06:09:38;;;;;;;15.73;14.13;;;3.30;59.80;4.50;99950.00;;;;5094647;28;20535;-76
2021/01/03 06:12:16;;;;;;;16.30;14.60;;;3.30;60.50;4.50;99947.00;;;;5116890;27;20427;-76
2021/01/03 06:14:45;;;;;;;16.15;14.55;;;3.30;60.80;4.50;99946.00;;;;5098784;28;20460;-76
2021/01/03 06:17:32;;;;;;;15.27;13.67;;;3.30;61.30;4.50;99950.00;;;;5107063;28;20433;-76
2021/01/03 06:20:16;;;;;;;16.58;14.88;;;3.30;61.60;4.40;99953.00;;;;5118749;28;20476;-77
2021/01/03 06:22:49;;;;;;;17.52;15.18;;;3.20;61.40;4.40;99954.00;;;;5114740;28;20443;-76
2021/01/03 06:25:30;;;;;;;16.17;13.93;;;3.20;62.00;4.30;99946.00;;;;5099195;28;20544;-76
2021/01/03 06:28:09;;;;;;;16.60;14.90;;;3.20;62.40;217.30;158552.00;;;;5079596;28;20462;-76
2021/01/03 06:30:39;;;;;;;16.75;15.05;;;3.20;62.90;4.40;99958.00;;;;5100428;28;20420;-76
2021/01/03 06:33:56;;;;;;;16.65;14.85;;;3.20;62.90;4.40;99939.00;;;;5088743;28;20513;-76
2021/01/03 06:36:34;;;;;;;16.67;14.88;;;3.20;63.20;4.40;99957.00;;;;5098252;28;20990;-76
2021/01/03 06:39:18;;;;;;;16.43;14.00;;;3.20;62.80;4.40;99953.00;;;;5096420;28;20829;-75
2021/01/03 06:41:50;;;;;;;15.80;14.10;;;3.30;62.50;4.40;99945.00;;;;5084199;28;20476;-75
2021/01/03 06:45:03;;;;;;;16.27;14.57;;;3.30;62.90;4.40;99970.00;;;;5075560;28;20420;-75
2021/01/03 06:48:27;;;;;;;16.75;15.02;;;3.20;63.20;4.40;99939.00;;;;5089611;28;20424;-76
2021/01/03 06:51:28;;;;;;;16.45;14.75;;;3.30;63.50;4.40;99949.00;;;;5104930;28;20524;-75
2021/01/03 06:54:29;;;;;;;15.17;13.63;;;3.20;63.50;4.50;99964.00;;;;5060813;28;20457;-76
2021/01/03 06:57:53;;;;;;;14.80;13.20;;;3.30;63.60;4.50;99947.00;;;;5046493;28;20512;-76
2021/01/03 07:00:24;;;;;;;15.55;13.95;;;3.30;63.20;4.50;99952.00;;;;5081130;28;20881;-76
2021/01/03 07:03:02;;;;;;;15.67;14.03;;;3.30;63.30;4.50;99943.00;;;;5079465;28;20491;-76
2021/01/03 07:05:31;;;;;;;15.48;13.45;;;3.30;62.70;4.40;99953.00;;;;5086547;28;20467;-75
2021/01/03 07:08:03;;;;;;;14.80;13.30;;;3.30;62.70;4.50;99955.00;;;;5074205;28;20525;-76
2021/01/03 07:10:40;;;;;;;14.23;12.73;;;3.30;62.60;4.40;99953.00;;;;5089503;28;20519;-76
2021/01/03 07:13:41;;;;;;;14.85;13.35;;;3.30;63.10;4.50;99942.00;;;;5084155;28;20480;-75
2021/01/03 07:16:26;;;;;;;15.88;14.18;;;3.30;63.50;4.50;99953.00;;;;5107228;28;20530;-76
2021/01/03 07:18:58;;;;;;;15.55;14.02;;;3.40;63.10;4.50;99953.00;;;;5081535;28;20989;-75
2021/01/03 07:21:42;;;;;;;16.52;14.82;;;3.40;63.20;4.50;99938.00;;;;5099381;28;20901;-75
2021/01/03 07:24:33;;;;;;;16.30;14.60;;;3.40;63.50;4.50;99931.00;;;;5082653;28;20428;-75
2021/01/03 07:27:42;;;;;;;16.42;14.82;;;3.40;62.90;4.50;99935.00;;;;5084483;28;20528;-75
2021/01/03 07:30:54;;;;;;;16.00;14.40;;;3.40;62.90;4.60;99945.00;;;;5099756;28;20454;-75
2021/01/03 07:33:37;;;;;;;15.13;13.53;;;3.40;62.90;4.40;99937.00;;;;5090564;28;20570;-76
2021/01/03 07:36:45;;;;;;;16.77;13.80;;;3.40;62.70;4.50;99934.00;;;;5087810;28;21088;-75
2021/01/03 07:39:21;;;;;;;16.00;14.35;;;3.40;63.30;4.50;99934.00;;;;5095213;28;20423;-74
2021/01/03 07:42:18;;;;;;;17.83;16.00;;;3.40;63.50;4.50;99936.00;;;;5088430;28;20476;-75
2021/01/03 07:44:47;;;;;;;18.02;16.17;;;3.40;63.00;4.60;99942.00;;;;5128978;27;20465;-76
2021/01/03 07:47:41;;;;;;;16.08;13.95;;;3.40;63.50;4.60;99937.00;;;;5112281;28;20416;-75
2021/01/03 07:50:37;;;;;;;17.20;15.50;;;3.40;63.40;4.70;99943.00;;;;5090832;28;20953;-76
2021/01/03 07:53:29;;;;;;;17.23;15.52;;;3.40;63.70;4.70;99946.00;;;;5041565;28;20417;-75
2021/01/03 07:56:16;;;;;;;15.93;14.32;;;3.50;63.40;4.70;99950.00;;;;5088099;28;21139;-76
2021/01/03 07:58:44;;;;;;;17.88;15.98;;;3.50;63.20;4.80;99954.00;;;;5084516;28;20526;-76
2021/01/03 08:01:16;;;;;;;16.98;15.35;;;3.50;63.50;4.90;99940.00;;;;5082346;28;20424;-77
2021/01/03 08:03:43;;;;;;;17.10;15.30;;;3.60;62.90;5.00;67357.00;;;;5087055;28;20470;-77
2021/01/03 08:06:12;;;;;;;17.13;15.23;;;3.60;63.00;4.90;99941.00;;;;5094565;28;20421;-74
2021/01/03 08:08:40;;;;;;;17.30;15.50;;;3.70;62.60;4.90;99944.00;;;;5091373;28;20459;-76
2021/01/03 08:11:21;;;;;;;17.30;15.50;;;3.70;63.30;5.00;99938.00;;;;5081410;28;20515;-76
2021/01/03 08:13:55;;;;;;;17.02;15.32;;;3.70;63.10;5.10;99952.00;;;;5088919;28;20500;-76
2021/01/03 08:16:25;;;;;;;16.60;14.80;;;3.70;63.10;5.00;99948.00;;;;5091815;28;20508;-76
2021/01/03 08:19:04;;;;;;;16.50;14.77;;;3.70;62.90;5.00;99949.00;;;;5085332;28;20429;-77
2021/01/03 08:21:32;;;;;;;17.15;15.35;;;3.70;62.90;5.00;99946.00;;;;5083679;28;20483;-76
2021/01/03 08:24:07;;;;;;;16.08;14.38;;;3.80;62.90;5.00;99940.00;;;;5079592;28;20941;-76
2021/01/03 08:26:41;;;;;;;16.30;14.52;;;3.80;63.20;5.00;99955.00;;;;5072181;28;20423;-75
2021/01/03 08:29:22;;;;;;;17.13;15.33;;;3.80;63.20;5.10;99945.00;;;;5092659;28;20428;-77
2021/01/03 08:31:52;;;;;;;17.65;14.65;;;3.80;63.70;5.10;99953.00;;;;5085565;28;20561;-77
2021/01/03 08:34:27;;;;;;;15.88;14.18;;;3.90;63.60;5.20;99945.00;;;;5090312;28;20513;-77
2021/01/03 08:36:55;;;;;;;15.45;13.75;;;3.90;63.30;5.10;99943.00;;;;5096289;28;20477;-77
2021/01/03 08:39:27;;;;;;;16.05;14.45;;;3.90;63.20;5.20;99935.00;;;;5075264;28;20596;-75
2021/01/03 08:42:00;;;;;;;16.90;15.10;;;3.90;63.40;5.10;99949.00;;;;5093514;28;21688;-76
2021/01/03 08:44:35;;;;;;;17.33;14.27;;;3.90;63.50;5.20;99948.00;;;;5077641;28;20423;-76
2021/01/03 08:47:07;;;;;;;16.63;14.80;;;3.90;63.70;5.20;99951.00;;;;5086121;28;20444;-75
2021/01/03 08:49:34;;;;;;;16.95;15.15;;;4.00;63.70;5.00;99963.00;;;;5101771;28;20920;-76
2021/01/03 08:52:09;;;;;;;16.17;14.57;;;4.00;63.60;5.40;99955.00;;;;5110767;28;20427;-77
2021/01/03 08:54:36;;;;;;;16.73;14.85;;;4.00;63.20;5.40;99956.00;;;;5116191;28;20440;-77
2021/01/03 08:57:06;;;;;;;15.70;14.00;;;4.00;63.30;5.40;99951.00;;;;5111004;28;20491;-76
2021/01/03 08:59:34;;;;;;;18.90;15.05;;;4.10;63.40;5.40;99955.00;;;;5111278;28;20508;-76
2021/01/03 09:02:02;;;;;;;16.63;14.93;;;4.10;62.80;5.50;99961.00;;;;5103051;28;20449;-76
2021/01/03 09:04:30;;;;;;;15.25;13.65;;;4.10;63.20;5.40;99953.00;;;;5110733;28;20551;-77
2021/01/03 09:06:59;;;;;;;16.13;14.02;;;4.20;62.60;5.30;99964.00;;;;5111006;28;20424;-77
2021/01/03 09:09:30;;;;;;;18.30;16.30;;;4.10;62.70;5.40;99970.00;;;;5087824;28;20459;-77
2021/01/03 09:12:01;;;;;;;17.17;15.38;;;4.10;63.30;5.50;99969.00;;;;5087604;28;20421;-76
2021/01/03 09:14:35;;;;;;;15.40;13.80;;;4.20;63.30;5.40;99975.00;;;;5094704;28;20482;-77
2021/01/03 09:17:12;;;;;;;15.75;13.35;;;4.10;63.80;5.30;99977.00;;;;5108627;28;20415;-77
2021/01/03 09:19:58;;;;;;;14.88;13.18;;;4.10;63.60;5.40;99972.00;;;;5080116;28;20505;-77
2021/01/03 09:22:30;;;;;;;17.55;15.75;;;4.10;63.90;5.50;99980.00;;;;5104746;28;20458;-77
2021/01/03 09:25:00;;;;;;;16.55;14.85;;;4.20;64.10;5.50;99984.00;;;;5111089;28;20451;-76
2021/01/03 09:27:31;;;;;;;15.85;14.25;;;4.20;63.60;5.30;99974.00;;;;5095955;28;20769;-75
2021/01/03 09:30:22;;;;;;;16.17;14.57;;;4.20;63.50;5.30;99978.00;;;;5094909;28;20428;-76
2021/01/03 09:33:03;;;;;;;17.48;15.55;;;4.10;64.70;5.50;67457.00;;;;5081198;28;20449;-76
2021/01/03 09:35:46;;;;;;;16.48;14.77;;;4.20;64.70;5.50;99977.00;;;;5091329;28;20841;-75
2021/01/03 09:39:05;;;;;;;16.95;14.80;;;4.20;65.00;5.50;99984.00;;;;5088495;28;20438;-76
2021/01/03 09:41:55;;;;;;;15.30;13.80;;;4.20;65.00;5.40;99990.00;;;;5090549;28;20429;-77
2021/01/03 09:44:34;;;;;;;16.20;14.50;;;4.20;64.70;5.50;99988.00;;;;5078747;28;20452;-76
2021/01/03 09:47:06;;;;;;;15.90;14.20;;;4.40;65.70;5.70;99986.00;;;;5081887;28;20788;-77
2021/01/03 09:49:44;;;;;;;16.03;13.50;;;4.40;65.80;5.70;99989.00;;;;5094760;28;20461;-76
2021/01/03 09:52:28;;;;;;;15.20;13.60;;;4.40;64.50;5.70;99983.00;;;;5091750;28;20463;-76
2021/01/03 09:55:07;;;;;;;14.70;13.10;;;4.40;65.20;5.60;99983.00;;;;5096775;28;20413;-76
2021/01/03 09:57:40;;;;;;;15.20;13.37;;;4.30;65.00;217.30;159139.00;;;;5094377;28;20398;-76
2021/01/03 10:00:11;;;;;;;14.85;13.35;;;4.40;65.00;5.90;99993.00;;;;5087412;28;20430;-77
2021/01/03 10:02:40;;;;;;;14.63;13.13;;;4.50;64.50;5.90;99985.00;;;;5098549;28;20757;-76
2021/01/03 10:05:24;;;;;;;14.38;12.88;;;4.50;63.90;5.90;99993.00;;;;5102373;28;20423;-76
2021/01/03 10:07:59;;;;;;;15.02;13.43;;;4.50;63.90;6.00;99996.00;;;;5094165;28;20472;-77
2021/01/03 10:10:42;;;;;;;13.73;12.30;;;4.60;63.70;5.90;99988.00;;;;5108768;27;20416;-76
2021/01/03 10:13:11;;;;;;;12.48;11.18;;;4.60;63.00;5.70;99967.00;;;;5088941;28;20823;-76
2021/01/03 10:15:40;;;;;;;13.10;10.90;;;4.60;64.00;5.70;99985.00;;;;5091965;28;20906;-77
2021/01/03 10:18:12;;;;;;;13.93;12.00;;;4.50;64.00;5.90;99984.00;;;;5106446;28;20457;-75
2021/01/03 10:20:46;;;;;;;14.02;12.38;;;4.60;63.40;5.90;99980.00;;;;5082439;28;20406;-77
2021/01/03 10:23:33;;;;;;;12.98;11.68;;;4.60;62.90;52.70;159242.00;;;;5106857;27;20426;-77
2021/01/03 10:26:04;;;;;;;13.48;11.77;;;4.70;63.00;6.00;67595.00;;;;5088127;28;20483;-77
2021/01/03 10:28:32;;;;;;;12.70;11.50;;;4.70;63.10;52.70;159236.00;;;;5091909;28;20436;-76
2021/01/03 10:30:59;;;;;;;12.25;10.98;;;4.70;63.40;6.20;67617.00;;;;5094787;28;20433;-77
2021/01/03 10:33:28;;;;;;;13.52;12.05;;;4.70;62.70;6.20;67617.00;;;;5101826;28;20421;-77
2021/01/03 10:35:55;;;;;;;13.50;12.00;;;4.70;63.60;6.10;67603.00;;;;5091647;28;20424;-77
2021/01/03 10:38:23;;;;;;;13.50;12.10;;;4.70;63.80;6.10;99986.00;;;;5096061;28;20464;-78
2021/01/03 10:40:50;;;;;;;13.32;11.93;;;4.70;63.60;6.10;67612.00;;;;5097941;28;20448;-77
2021/01/03 10:43:17;;;;;;;13.20;11.80;;;4.70;63.70;6.00;67582.00;;;;5095511;28;20455;-78
2021/01/03 10:45:45;;;;;;;12.80;11.50;;;4.70;63.80;5.80;67531.00;;;;5084357;28;20415;-77
2021/01/03 10:48:13;;;;;;;12.77;11.48;;;4.60;63.90;217.30;159181.00;;;;5085140;28;20418;-76
2021/01/03 10:50:41;;;;;;;13.23;11.83;;;4.60;64.30;5.80;67539.00;;;;5093132;28;20455;-77
2021/01/03 10:53:09;;;;;;;13.02;11.63;;;4.60;64.60;5.70;67509.00;;;;5089660;28;20441;-76
2021/01/03 10:55:36;;;;;;;13.98;12.57;;;4.50;64.80;217.30;159107.00;;;;5096820;28;20444;-77
2021/01/03 10:58:04;;;;;;;13.07;11.65;;;4.50;64.80;5.80;67512.00;;;;5100251;28;20439;-75
2021/01/03 11:00:31;;;;;;;13.45;11.93;;;4.40;65.10;5.70;67507.00;;;;5111634;28;20424;-77
2021/01/03 11:02:59;;;;;;;13.32;11.73;;;4.40;65.00;5.70;67520.00;;;;5110199;28;20433;-76
2021/01/03 11:05:26;;;;;;;13.30;12.00;;;4.40;65.20;5.80;67531.00;;;;5108681;28;20436;-76
2021/01/03 11:07:54;;;;;;;14.30;12.32;;;4.40;65.90;5.80;67531.00;;;;5121148;27;20415;-76
2021/01/03 11:10:22;;;;;;;16.20;13.20;;;4.40;65.20;52.70;159107.00;;;;5125648;28;20419;-77
2021/01/03 11:12:50;;;;;;;13.93;12.43;;;4.40;66.30;217.30;159107.00;;;;5111633;28;20421;-77
2021/01/03 11:15:18;;;;;;;14.32;12.20;;;4.30;65.70;5.60;67502.00;;;;5136029;27;20430;-77
2021/01/03 11:17:53;;;;;;;14.30;12.90;;;4.30;66.30;5.60;67498.00;;;;5101840;28;20554;-77
2021/01/03 11:20:22;;;;;;;13.80;12.40;;;4.30;66.40;5.50;67449.00;;;;5123520;28;20521;-76
2021/01/03 11:22:50;;;;;;;14.82;12.90;;;4.40;66.60;217.30;159076.00;;;;5094276;28;20411;-77
2021/01/03 11:25:19;;;;;;;15.13;13.52;;;4.30;67.60;5.60;67500.00;;;;5108836;28;20417;-78